Terminal Aerodrome Forecast
Issued by NWS Louisville, KY

Home | Current Version | Previous Version | Text Only | Print | Product List | Glossary On
Versions: 1 2 3 4 5 6 7 8 9 10 11 12 13 14 15 16
711
FTUS43 KLMK 301122
TAFBWG
TAF
KBWG 301122Z 3012/3112 00000KT 5SM BR FEW003 SCT070
     FM301300 36006KT P6SM SCT060
     FM310000 00000KT P6SM SKC=

USA.gov is the U.S. government's official web portal to all federal, state and local government web resources and services.